Time;durP1;ratioP1;P1;durP2;ratioP2;P2;SDS_P1;SDS_P2;PMS_P1;PMS_P2;Temp;Humidity;BMP_temperature;BMP_pressure;BME280_temperature;BME280_humidity;BME280_pressure;Samples;Min_cycle;Max_cycle;Signal;HPM_P1;HPM_P2
2022/01/19 00:01:05;;;;;;;1.83;0.98;;;;;;;;;;10463366;28;20055;-72
2022/01/19 00:06:09;;;;;;;3.50;1.70;;;;;;;;;;10458032;28;20468;-71
2022/01/19 00:11:12;;;;;;;4.10;1.50;;;;;;;;;;10451051;28;20037;-71
2022/01/19 00:16:17;;;;;;;13.17;2.03;;;;;;;;;;10456828;28;20532;-71
2022/01/19 00:21:20;;;;;;;6.87;1.73;;;;;;;;;;10459367;28;20041;-71
2022/01/19 00:26:23;;;;;;;1.40;0.50;;;;;;;;;;10461109;28;20037;-69
2022/01/19 00:31:28;;;;;;;4.97;1.50;;;;;;;;;;10458462;28;20497;-70
2022/01/19 00:36:31;;;;;;;8.20;1.87;;;;;;;;;;10462804;28;20475;-70
2022/01/19 00:41:34;;;;;;;4.93;1.50;;;;;;;;;;10459663;28;20102;-70
2022/01/19 00:46:38;;;;;;;3.47;0.87;;;;;;;;;;10456602;28;20055;-73
2022/01/19 00:51:41;;;;;;;2.10;0.83;;;;;;;;;;10456653;28;20128;-72
2022/01/19 00:56:45;;;;;;;3.30;0.63;;;;;;;;;;10459684;28;20424;-71
2022/01/19 01:01:49;;;;;;;2.73;1.33;;;;;;;;;;10457825;28;20496;-70
2022/01/19 01:06:52;;;;;;;3.43;1.17;;;;;;;;;;10459265;28;20134;-71
2022/01/19 01:12:01;;;;;;;5.47;1.73;;;;;;;;;;10452610;28;20037;-71
2022/01/19 01:18:17;;;;;;;2.90;1.00;;;;;;;;;;10455542;28;20123;-71
2022/01/19 01:22:39;;;;;;;2.60;1.27;;;;;;;;;;10457560;28;20047;-72
2022/01/19 01:27:42;;;;;;;7.32;1.52;;;;;;;;;;10456680;28;20047;-72
2022/01/19 01:32:47;;;;;;;2.33;1.47;;;;;;;;;;10453080;28;20175;-70
2022/01/19 01:37:50;;;;;;;9.60;1.90;;;;;;;;;;10458306;28;20042;-71
2022/01/19 01:43:00;;;;;;;3.73;0.97;;;;;;;;;;10444369;28;20109;-71
2022/01/19 01:48:06;;;;;;;5.05;2.03;;;;;;;;;;10453814;28;20051;-72
2022/01/19 01:53:28;;;;;;;9.83;2.53;;;;;;;;;;10499439;22;20052;-75
2022/01/19 01:58:33;;;;;;;2.43;1.23;;;;;;;;;;10500662;28;20937;-75
2022/01/19 02:03:39;;;;;;;3.37;1.03;;;;;;;;;;10468892;28;20025;-75
2022/01/19 02:08:46;;;;;;;7.20;2.10;;;;;;;;;;10454344;28;20043;-75
2022/01/19 02:24:43;;;;;;;5.13;2.37;;;;;;;;;;10457064;28;20060;-75
2022/01/19 02:30:25;;;;;;;1.37;0.73;;;;;;;;;;10458735;28;20032;-75
2022/01/19 02:40:49;;;;;;;2.97;1.33;;;;;;;;;;10455421;28;20036;-74
2022/01/19 02:51:13;;;;;;;5.17;2.13;;;;;;;;;;10463405;28;20039;-74
2022/01/19 02:56:26;;;;;;;1.23;1.13;;;;;;;;;;10468255;28;20041;-76
2022/01/19 03:12:15;;;;;;;14.10;3.67;;;;;;;;;;10467992;28;20063;-74
2022/01/19 03:17:17;;;;;;;;;;;;;;;;;;10466599;28;20071;-74
2022/01/19 03:22:26;;;;;;;3.07;1.37;;;;;;;;;;10510354;28;19976;-74
2022/01/19 03:27:31;;;;;;;3.70;1.27;;;;;;;;;;10497957;28;20492;-74
2022/01/19 03:32:33;;;;;;;;;;;;;;;;;;10480985;28;20029;-73
2022/01/19 03:37:36;;;;;;;4.93;2.37;;;;;;;;;;10477873;28;19920;-74
2022/01/19 03:42:41;;;;;;;6.73;1.93;;;;;;;;;;10459122;28;20032;-75
2022/01/19 03:47:50;;;;;;;11.40;3.20;;;;;;;;;;10466260;28;20033;-76
2022/01/19 03:52:53;;;;;;;8.27;3.00;;;;;;;;;;10458167;28;20323;-76
2022/01/19 03:57:57;;;;;;;4.90;1.40;;;;;;;;;;10460138;28;20041;-76
2022/01/19 04:03:00;;;;;;;;;;;;;;;;;;10463867;28;20074;-73
2022/01/19 04:08:02;;;;;;;10.50;2.93;;;;;;;;;;10460932;28;19932;-75
2022/01/19 04:13:23;;;;;;;7.83;2.53;;;;;;;;;;10459124;28;20126;-76
2022/01/19 04:18:26;;;;;;;6.67;2.00;;;;;;;;;;10465305;28;20051;-75
2022/01/19 04:23:29;;;;;;;6.17;2.17;;;;;;;;;;10466359;28;20652;-76
2022/01/19 04:28:34;;;;;;;12.65;2.92;;;;;;;;;;10468225;28;20120;-76
2022/01/19 04:33:42;;;;;;;6.73;1.90;;;;;;;;;;10456455;28;20408;-75
2022/01/19 05:05:59;;;;;;;15.93;4.27;;;;;;;;;;10459153;28;20475;-76
2022/01/19 05:16:25;;;;;;;13.87;4.33;;;;;;;;;;10463127;28;20041;-74
2022/01/19 05:21:28;;;;;;;13.73;3.90;;;;;;;;;;10455855;28;20024;-75
2022/01/19 05:26:32;;;;;;;17.83;4.17;;;;;;;;;;10463383;28;20124;-75
2022/01/19 05:31:36;;;;;;;3.90;2.10;;;;;;;;;;10449919;28;20052;-76
2022/01/19 05:36:39;;;;;;;;;;;;;;;;;;10476283;28;20460;-75
2022/01/19 05:41:42;;;;;;;7.13;2.40;;;;;;;;;;10465071;28;19944;-75
2022/01/19 05:46:46;;;;;;;7.30;2.33;;;;;;;;;;10468860;28;20048;-75
2022/01/19 05:51:49;;;;;;;;;;;;;;;;;;10478076;28;20025;-74
2022/01/19 05:56:52;;;;;;;6.93;2.67;;;;;;;;;;10458871;28;19921;-74
2022/01/19 06:01:57;;;;;;;3.15;1.13;;;;;;;;;;10454120;28;20036;-74
2022/01/19 06:07:02;;;;;;;6.23;2.23;;;;;;;;;;10455220;28;20124;-73
2022/01/19 06:12:07;;;;;;;19.17;5.50;;;;;;;;;;10448580;28;20098;-74
2022/01/19 06:17:12;;;;;;;13.60;4.57;;;;;;;;;;10458511;28;20055;-73
2022/01/19 06:22:17;;;;;;;6.17;2.50;;;;;;;;;;10454204;28;20041;-76
2022/01/19 06:27:20;;;;;;;11.60;4.40;;;;;;;;;;10452907;28;20044;-73
2022/01/19 06:32:24;;;;;;;9.90;5.20;;;;;;;;;;10459817;28;20053;-73
2022/01/19 06:37:26;;;;;;;12.75;3.00;;;;;;;;;;10457907;28;20048;-74
2022/01/19 06:42:30;;;;;;;9.83;3.97;;;;;;;;;;10449525;28;20128;-74
2022/01/19 06:47:35;;;;;;;8.27;2.30;;;;;;;;;;10458423;28;20463;-76
2022/01/19 06:52:38;;;;;;;11.17;4.70;;;;;;;;;;10458015;28;20542;-75
2022/01/19 06:57:41;;;;;;;17.63;4.23;;;;;;;;;;10455225;28;20041;-75
2022/01/19 07:02:45;;;;;;;9.43;4.33;;;;;;;;;;10460698;28;20044;-76
2022/01/19 07:07:48;;;;;;;12.93;3.90;;;;;;;;;;10459646;28;20044;-76
2022/01/19 07:12:51;;;;;;;10.10;4.37;;;;;;;;;;10457277;28;20800;-76
2022/01/19 07:17:55;;;;;;;20.97;6.53;;;;;;;;;;10460819;28;20546;-75
2022/01/19 07:23:01;;;;;;;15.37;5.67;;;;;;;;;;10459006;28;20036;-74
2022/01/19 07:28:08;;;;;;;19.73;4.53;;;;;;;;;;10447029;28;20051;-74
2022/01/19 07:33:12;;;;;;;14.00;5.20;;;;;;;;;;10451398;28;20040;-75
2022/01/19 07:38:15;;;;;;;22.00;10.10;;;;;;;;;;10453431;28;20075;-74
2022/01/19 07:43:18;;;;;;;10.90;4.03;;;;;;;;;;10467988;28;20029;-76
2022/01/19 07:48:22;;;;;;;19.57;5.93;;;;;;;;;;10459672;28;20052;-73
2022/01/19 07:53:25;;;;;;;;;;;;;;;;;;10465111;28;20067;-73
2022/01/19 07:58:28;;;;;;;2.93;1.83;;;;;;;;;;10466561;28;19921;-74
2022/01/19 08:03:32;;;;;;;21.00;6.60;;;;;;;;;;10460021;28;20131;-73
2022/01/19 08:08:40;;;;;;;15.40;6.07;;;;;;;;;;10455350;28;20094;-73
2022/01/19 08:13:43;;;;;;;8.30;4.00;;;;;;;;;;10460395;28;20504;-74
2022/01/19 08:18:48;;;;;;;4.53;2.07;;;;;;;;;;10453077;28;20040;-75
2022/01/19 08:23:51;;;;;;;15.77;4.87;;;;;;;;;;10460163;28;20043;-75
2022/01/19 08:28:54;;;;;;;12.27;5.47;;;;;;;;;;10466078;28;20494;-74
2022/01/19 08:33:58;;;;;;;13.20;3.77;;;;;;;;;;10460187;28;20044;-74
2022/01/19 08:39:01;;;;;;;19.83;6.73;;;;;;;;;;10486987;28;20047;-74
2022/01/19 08:44:05;;;;;;;10.10;4.15;;;;;;;;;;10506848;28;20093;-74
2022/01/19 08:49:10;;;;;;;9.70;3.65;;;;;;;;;;10500770;28;20064;-73
2022/01/19 08:54:13;;;;;;;11.50;4.77;;;;;;;;;;10472098;28;20488;-73
2022/01/19 08:59:16;;;;;;;20.53;6.87;;;;;;;;;;10464802;28;20094;-74
2022/01/19 09:04:21;;;;;;;21.42;7.28;;;;;;;;;;10451834;28;20044;-75
2022/01/19 09:09:25;;;;;;;18.67;6.67;;;;;;;;;;10448471;28;20519;-75
2022/01/19 09:14:30;;;;;;;11.23;4.13;;;;;;;;;;10451211;28;20511;-74
2022/01/19 09:19:35;;;;;;;14.83;6.30;;;;;;;;;;10452076;28;20053;-75
2022/01/19 09:24:40;;;;;;;15.32;5.88;;;;;;;;;;10460266;28;20079;-74
2022/01/19 09:29:45;;;;;;;16.77;5.57;;;;;;;;;;10447555;28;20088;-75
2022/01/19 09:34:58;;;;;;;18.98;7.50;;;;;;;;;;10457872;28;20037;-74
2022/01/19 09:40:01;;;;;;;17.13;7.18;;;;;;;;;;10451346;28;20355;-76
2022/01/19 09:45:05;;;;;;;17.13;6.40;;;;;;;;;;10457927;28;20123;-73
2022/01/19 09:50:09;;;;;;;18.10;8.52;;;;;;;;;;10451364;28;20040;-75
2022/01/19 09:55:15;;;;;;;26.92;9.20;;;;;;;;;;10452332;28;20039;-75
2022/01/19 10:00:18;;;;;;;19.52;9.52;;;;;;;;;;10454257;28;20032;-75
2022/01/19 10:05:23;;;;;;;14.65;7.85;;;;;;;;;;10450444;28;20293;-75
2022/01/19 10:10:26;;;;;;;31.45;10.57;;;;;;;;;;10452878;28;20046;-74
2022/01/19 10:21:04;;;;;;;15.82;9.10;;;;;;;;;;10448984;28;20489;-74
2022/01/19 10:26:10;;;;;;;73.68;21.05;;;;;;;;;;10471766;28;20052;-74
2022/01/19 10:31:16;;;;;;;15.05;9.35;;;;;;;;;;10454358;28;20540;-74
2022/01/19 10:36:40;;;;;;;27.48;10.50;;;;;;;;;;10450639;28;20071;-73
2022/01/19 10:42:00;;;;;;;14.70;8.75;;;;;;;;;;10448457;28;20045;-74
2022/01/19 10:47:04;;;;;;;19.25;9.60;;;;;;;;;;10454601;28;20025;-75
2022/01/19 10:52:08;;;;;;;89.15;15.40;;;;;;;;;;10456370;28;20067;-74
2022/01/19 10:57:15;;;;;;;16.48;9.05;;;;;;;;;;10454237;28;20067;-75
2022/01/19 11:02:36;;;;;;;13.57;6.97;;;;;;;;;;10449024;28;20128;-75
2022/01/19 11:07:41;;;;;;;20.75;9.68;;;;;;;;;;10457285;28;20045;-75
2022/01/19 11:12:48;;;;;;;17.80;9.88;;;;;;;;;;10450956;28;20118;-73
2022/01/19 11:17:51;;;;;;;16.67;8.85;;;;;;;;;;10455737;28;20033;-74
2022/01/19 11:23:13;;;;;;;16.65;9.40;;;;;;;;;;10465153;28;20078;-74
2022/01/19 11:28:33;;;;;;;41.72;10.07;;;;;;;;;;10461173;28;20485;-73
2022/01/19 11:33:41;;;;;;;19.20;8.90;;;;;;;;;;10463080;28;20136;-74
2022/01/19 11:38:46;;;;;;;11.90;7.47;;;;;;;;;;10465141;28;20416;-74
2022/01/19 11:43:50;;;;;;;12.70;7.53;;;;;;;;;;10465648;28;20045;-74
2022/01/19 11:48:53;;;;;;;16.30;7.72;;;;;;;;;;10459810;28;20036;-73
2022/01/19 11:54:03;;;;;;;10.73;6.78;;;;;;;;;;10459502;28;20037;-74
2022/01/19 11:59:07;;;;;;;12.80;8.15;;;;;;;;;;10459282;28;20032;-73
2022/01/19 12:04:15;;;;;;;12.25;7.82;;;;;;;;;;10471796;28;20124;-74
2022/01/19 12:09:20;;;;;;;15.00;7.22;;;;;;;;;;10461325;28;20045;-76
2022/01/19 12:14:38;;;;;;;11.23;6.68;;;;;;;;;;10463958;28;20136;-74
2022/01/19 12:19:43;;;;;;;8.02;5.72;;;;;;;;;;10460643;28;20114;-75
2022/01/19 12:24:56;;;;;;;89.40;12.75;;;;;;;;;;10463396;28;20068;-74
2022/01/19 12:29:59;;;;;;;;;;;;;;;;;;10454814;28;20152;-75
2022/01/19 12:35:13;;;;;;;13.63;6.35;;;;;;;;;;10461664;28;19927;-76
2022/01/19 12:40:29;;;;;;;13.00;6.97;;;;;;;;;;10459081;28;20481;-76
2022/01/19 12:45:34;;;;;;;9.18;5.85;;;;;;;;;;10467684;28;20659;-74
2022/01/19 12:50:39;;;;;;;11.73;6.72;;;;;;;;;;10450443;28;20029;-74
2022/01/19 12:55:47;;;;;;;17.33;8.60;;;;;;;;;;10465377;28;20398;-75
2022/01/19 13:00:51;;;;;;;12.80;7.50;;;;;;;;;;10455666;28;20045;-74
2022/01/19 13:05:58;;;;;;;11.77;6.68;;;;;;;;;;10457775;28;20125;-75
2022/01/19 13:11:11;;;;;;;12.75;7.03;;;;;;;;;;10449715;28;20042;-76
2022/01/19 13:16:25;;;;;;;10.98;7.10;;;;;;;;;;10457777;28;20055;-73
2022/01/19 13:21:29;;;;;;;14.20;8.13;;;;;;;;;;10450646;28;20036;-74
2022/01/19 13:26:41;;;;;;;11.48;7.13;;;;;;;;;;10455230;28;20102;-75
2022/01/19 13:31:52;;;;;;;12.43;6.97;;;;;;;;;;10446964;28;20072;-75
2022/01/19 13:36:58;;;;;;;15.32;7.80;;;;;;;;;;10455739;28;20029;-76
2022/01/19 13:42:04;;;;;;;10.70;6.38;;;;;;;;;;10466898;28;20075;-75
2022/01/19 13:47:11;;;;;;;11.82;5.95;;;;;;;;;;10455400;28;20045;-76
2022/01/19 13:52:14;;;;;;;9.13;4.38;;;;;;;;;;10455328;28;20051;-75
2022/01/19 13:57:17;;;;;;;;;;;;;;;;;;10457544;28;20044;-73
2022/01/19 14:02:23;;;;;;;12.53;3.70;;;;;;;;;;10458871;28;19920;-74
2022/01/19 14:07:27;;;;;;;9.98;3.97;;;;;;;;;;10457022;28;20087;-75
2022/01/19 14:12:30;;;;;;;12.68;4.82;;;;;;;;;;10447305;28;20048;-74
2022/01/19 14:17:36;;;;;;;12.13;5.77;;;;;;;;;;10452996;28;20523;-75
2022/01/19 14:22:39;;;;;;;15.50;6.03;;;;;;;;;;10454235;28;20036;-76
2022/01/19 14:27:45;;;;;;;9.90;4.40;;;;;;;;;;10453073;28;20120;-74
2022/01/19 14:32:50;;;;;;;11.05;5.35;;;;;;;;;;10458005;28;20037;-73
2022/01/19 14:38:17;;;;;;;19.55;6.35;;;;;;;;;;10448808;28;20087;-74
2022/01/19 14:43:25;;;;;;;18.77;6.85;;;;;;;;;;10437127;28;20084;-74
2022/01/19 14:48:34;;;;;;;13.48;5.90;;;;;;;;;;10446116;28;20080;-76
2022/01/19 14:53:37;;;;;;;15.27;6.70;;;;;;;;;;10465523;28;20040;-75
2022/01/19 14:58:41;;;;;;;13.48;4.90;;;;;;;;;;10456219;28;20032;-77
2022/01/19 15:03:45;;;;;;;7.87;3.53;;;;;;;;;;10461894;28;20055;-76
2022/01/19 15:08:49;;;;;;;8.82;2.97;;;;;;;;;;10465906;28;20029;-75
2022/01/19 15:13:52;;;;;;;9.17;3.30;;;;;;;;;;10470141;28;20045;-76
2022/01/19 15:18:57;;;;;;;12.63;5.00;;;;;;;;;;10456248;28;20691;-76
2022/01/19 15:24:00;;;;;;;18.48;5.90;;;;;;;;;;10460123;28;20052;-77
2022/01/19 15:29:03;;;;;;;12.05;4.45;;;;;;;;;;10459712;28;20099;-76
2022/01/19 15:34:11;;;;;;;16.98;4.88;;;;;;;;;;10463928;28;20102;-77
2022/01/19 15:39:14;;;;;;;9.30;4.57;;;;;;;;;;10457225;28;20497;-78
2022/01/19 15:44:17;;;;;;;6.35;2.58;;;;;;;;;;10468852;28;20444;-77
2022/01/19 15:49:22;;;;;;;5.53;2.37;;;;;;;;;;10464341;28;20165;-76
2022/01/19 15:54:25;;;;;;;11.52;4.47;;;;;;;;;;10463941;28;20132;-77
2022/01/19 15:59:28;;;;;;;7.20;2.75;;;;;;;;;;10454284;28;20044;-76
2022/01/19 16:04:33;;;;;;;4.15;2.05;;;;;;;;;;10474182;28;20040;-77
2022/01/19 16:09:37;;;;;;;6.38;3.03;;;;;;;;;;10457688;28;20037;-76
2022/01/19 16:14:41;;;;;;;9.77;3.90;;;;;;;;;;10463838;28;20069;-77
2022/01/19 16:19:45;;;;;;;11.50;4.40;;;;;;;;;;10465676;28;20168;-77
2022/01/19 16:30:14;;;;;;;13.13;5.03;;;;;;;;;;10403835;28;20083;-77
2022/01/19 16:35:19;;;;;;;9.70;4.03;;;;;;;;;;10464802;28;20041;-76
2022/01/19 16:40:24;;;;;;;9.00;2.45;;;;;;;;;;10464970;28;20044;-76
2022/01/19 16:45:27;;;;;;;19.50;6.40;;;;;;;;;;10458479;28;20045;-76
2022/01/19 16:50:33;;;;;;;17.15;7.45;;;;;;;;;;10458746;28;20127;-76
2022/01/19 16:55:36;;;;;;;16.10;6.13;;;;;;;;;;10467413;28;20537;-79
2022/01/19 17:00:39;;;;;;;17.43;7.00;;;;;;;;;;10473767;28;20087;-77
2022/01/19 17:05:44;;;;;;;10.97;4.23;;;;;;;;;;10471852;28;20032;-78
2022/01/19 17:10:56;;;;;;;11.03;3.77;;;;;;;;;;10470891;28;20041;-77
2022/01/19 17:16:10;;;;;;;6.10;2.57;;;;;;;;;;10469112;28;20046;-76
2022/01/19 17:21:26;;;;;;;5.37;2.63;;;;;;;;;;10447511;28;20087;-79
2022/01/19 17:26:29;;;;;;;14.77;6.07;;;;;;;;;;10458612;28;20033;-77
2022/01/19 17:31:53;;;;;;;16.80;5.57;;;;;;;;;;10458095;28;20055;-77
2022/01/19 17:36:58;;;;;;;10.73;4.23;;;;;;;;;;10457072;28;20047;-77
2022/01/19 17:42:01;;;;;;;19.83;8.33;;;;;;;;;;10465773;28;20044;-77
2022/01/19 17:47:16;;;;;;;11.10;4.10;;;;;;;;;;10460906;28;20035;-77
2022/01/19 17:52:22;;;;;;;11.60;3.70;;;;;;;;;;10460616;28;20041;-76
2022/01/19 17:57:25;;;;;;;18.90;6.10;;;;;;;;;;10458111;28;20090;-76
2022/01/19 18:02:29;;;;;;;15.43;6.33;;;;;;;;;;10465327;28;20044;-77
2022/01/19 18:07:34;;;;;;;9.88;4.88;;;;;;;;;;10467488;28;20128;-77
2022/01/19 18:12:37;;;;;;;9.17;3.77;;;;;;;;;;10467180;28;20045;-77
2022/01/19 18:17:42;;;;;;;17.43;6.77;;;;;;;;;;10460860;28;20473;-76
2022/01/19 18:22:47;;;;;;;8.93;3.87;;;;;;;;;;10462688;28;20068;-77
2022/01/19 18:27:51;;;;;;;31.43;8.50;;;;;;;;;;10470928;28;20037;-78
2022/01/19 18:32:55;;;;;;;15.07;6.13;;;;;;;;;;10449474;28;20041;-75
2022/01/19 18:38:00;;;;;;;19.70;5.13;;;;;;;;;;10451950;28;20036;-75
2022/01/19 18:43:03;;;;;;;10.30;4.30;;;;;;;;;;10448327;28;20064;-75
2022/01/19 18:48:06;;;;;;;10.77;4.83;;;;;;;;;;10451653;28;20038;-76
2022/01/19 18:53:11;;;;;;;23.02;9.70;;;;;;;;;;10450770;28;20147;-75
2022/01/19 18:58:15;;;;;;;13.10;4.53;;;;;;;;;;10452582;28;20041;-75
2022/01/19 19:03:20;;;;;;;19.55;8.23;;;;;;;;;;10455141;28;20045;-76
2022/01/19 19:08:24;;;;;;;16.25;5.68;;;;;;;;;;10449155;28;20106;-74
2022/01/19 19:13:28;;;;;;;7.97;3.50;;;;;;;;;;10453737;28;20064;-74
2022/01/19 19:18:32;;;;;;;17.80;7.23;;;;;;;;;;10453048;28;20033;-76
2022/01/19 19:23:37;;;;;;;16.27;6.90;;;;;;;;;;10434099;28;20036;-76
2022/01/19 19:28:40;;;;;;;15.83;5.47;;;;;;;;;;10430381;28;20037;-75
2022/01/19 19:33:43;;;;;;;6.73;3.27;;;;;;;;;;10442992;28;20126;-74
2022/01/19 19:38:47;;;;;;;12.30;5.47;;;;;;;;;;10450917;28;20035;-73
2022/01/19 19:43:53;;;;;;;7.53;2.70;;;;;;;;;;10452025;28;20346;-74
2022/01/19 19:48:57;;;;;;;7.80;3.50;;;;;;;;;;10443197;28;20120;-74
2022/01/19 19:54:04;;;;;;;7.55;3.17;;;;;;;;;;10454087;28;20068;-75
2022/01/19 19:59:07;;;;;;;11.87;3.67;;;;;;;;;;10446386;28;20037;-75
2022/01/19 20:04:12;;;;;;;5.73;1.83;;;;;;;;;;10447868;28;20041;-74
2022/01/19 20:09:17;;;;;;;11.57;4.47;;;;;;;;;;10440616;28;20299;-75
2022/01/19 20:14:24;;;;;;;4.73;2.37;;;;;;;;;;10440302;28;20156;-77
2022/01/19 20:19:27;;;;;;;11.37;4.00;;;;;;;;;;10448058;28;20129;-74
2022/01/19 20:24:32;;;;;;;6.97;3.20;;;;;;;;;;10444748;28;20613;-74
2022/01/19 20:29:36;;;;;;;9.23;4.30;;;;;;;;;;10445094;28;20055;-75
2022/01/19 20:34:40;;;;;;;5.35;2.50;;;;;;;;;;10439710;28;20090;-76
2022/01/19 20:39:45;;;;;;;7.05;2.63;;;;;;;;;;10450826;28;20041;-75
2022/01/19 20:44:49;;;;;;;10.97;4.73;;;;;;;;;;10450877;28;20111;-77
2022/01/19 20:49:54;;;;;;;4.53;2.15;;;;;;;;;;10453693;28;20033;-78
2022/01/19 20:54:59;;;;;;;8.43;2.80;;;;;;;;;;10450273;28;20037;-76
2022/01/19 21:00:02;;;;;;;6.40;2.83;;;;;;;;;;10435921;28;20048;-72
2022/01/19 21:05:08;;;;;;;8.67;3.23;;;;;;;;;;10447862;28;20045;-74
2022/01/19 21:10:13;;;;;;;5.57;2.67;;;;;;;;;;10448351;28;20048;-74
2022/01/19 21:15:17;;;;;;;5.93;2.63;;;;;;;;;;10450019;28;20128;-74
2022/01/19 21:20:21;;;;;;;8.90;3.33;;;;;;;;;;10436919;28;20034;-75
2022/01/19 21:25:25;;;;;;;3.67;1.90;;;;;;;;;;10449789;28;20069;-76
2022/01/19 21:30:28;;;;;;;7.03;2.83;;;;;;;;;;10444095;28;20137;-75
2022/01/19 21:35:32;;;;;;;4.68;1.58;;;;;;;;;;10445329;28;20518;-73
2022/01/19 21:40:38;;;;;;;6.32;2.17;;;;;;;;;;10449033;28;20093;-75
2022/01/19 21:45:41;;;;;;;8.57;3.50;;;;;;;;;;10464425;28;20044;-75
2022/01/19 21:50:44;;;;;;;4.90;2.60;;;;;;;;;;10460346;28;20110;-77
2022/01/19 21:55:49;;;;;;;11.50;3.83;;;;;;;;;;10461332;28;20048;-75
2022/01/19 22:00:53;;;;;;;6.80;2.93;;;;;;;;;;10458386;28;20040;-77
2022/01/19 22:05:56;;;;;;;10.55;4.03;;;;;;;;;;10458894;28;20055;-76
2022/01/19 22:11:00;;;;;;;4.57;2.00;;;;;;;;;;10476366;28;20032;-76
2022/01/19 22:16:23;;;;;;;7.85;2.65;;;;;;;;;;10457648;28;20114;-78
2022/01/19 22:21:27;;;;;;;8.18;3.10;;;;;;;;;;10453920;28;20037;-78
2022/01/19 22:26:32;;;;;;;11.00;4.37;;;;;;;;;;10454812;28;20084;-78
2022/01/19 22:31:36;;;;;;;7.43;2.87;;;;;;;;;;10447350;28;20037;-75
2022/01/19 22:36:44;;;;;;;3.10;1.87;;;;;;;;;;10457632;28;20132;-74
2022/01/19 22:41:51;;;;;;;7.77;3.70;;;;;;;;;;10453223;28;20111;-74
2022/01/19 22:46:56;;;;;;;5.97;2.53;;;;;;;;;;10456238;28;20144;-75
2022/01/19 22:52:00;;;;;;;7.97;3.27;;;;;;;;;;10450032;28;20033;-75
2022/01/19 22:57:05;;;;;;;8.37;3.47;;;;;;;;;;10454270;28;20033;-77
2022/01/19 23:02:08;;;;;;;9.30;4.17;;;;;;;;;;10458465;28;20404;-75
2022/01/19 23:07:12;;;;;;;5.55;2.30;;;;;;;;;;10453011;28;20041;-74
2022/01/19 23:12:17;;;;;;;4.80;2.03;;;;;;;;;;10458922;28;20044;-75
2022/01/19 23:17:20;;;;;;;4.80;1.73;;;;;;;;;;10459649;28;20590;-76
2022/01/19 23:22:23;;;;;;;6.23;3.20;;;;;;;;;;10463580;28;20037;-76
2022/01/19 23:27:31;;;;;;;5.23;2.07;;;;;;;;;;10456283;28;20037;-77
2022/01/19 23:32:41;;;;;;;4.20;1.93;;;;;;;;;;10460412;28;20087;-78
2022/01/19 23:37:52;;;;;;;5.30;1.43;;;;;;;;;;10463727;28;20067;-77
2022/01/19 23:48:23;;;;;;;7.03;2.77;;;;;;;;;;10456731;28;20518;-77
2022/01/19 23:53:27;;;;;;;4.93;2.07;;;;;;;;;;10462845;28;20049;-77
2022/01/19 23:58:36;;;;;;;7.45;3.35;;;;;;;;;;10462350;28;20241;-76
